createdAt,value
2018-05-10T00:01:43.777Z,51.15
2018-05-10T00:04:47.090Z,51.60
2018-05-10T00:07:50.861Z,52.60
2018-05-10T00:10:54.215Z,52.11
2018-05-10T00:13:58.592Z,52.81
2018-05-10T00:17:02.026Z,52.63
2018-05-10T00:20:05.372Z,51.60
2018-05-10T00:23:08.718Z,52.06
2018-05-10T00:26:12.128Z,51.31
2018-05-10T00:29:15.500Z,50.95
2018-05-10T00:32:18.669Z,50.81
2018-05-10T00:35:23.346Z,50.25
2018-05-10T00:38:26.715Z,49.79
2018-05-10T00:41:30.052Z,50.10
2018-05-10T00:44:33.427Z,51.78
2018-05-10T00:47:36.740Z,54.98
2018-05-10T00:50:40.108Z,59.05
2018-05-10T00:53:43.410Z,64.84
2018-05-10T00:56:46.809Z,63.44
2018-05-10T00:59:50.492Z,65.64
2018-05-10T01:02:53.866Z,66.66
2018-05-10T01:05:57.230Z,67.61
2018-05-10T01:09:00.907Z,67.65
2018-05-10T01:12:04.793Z,72.27
2018-05-10T01:15:08.098Z,72.71
2018-05-10T01:18:11.418Z,72.09
2018-05-10T01:21:14.748Z,71.97
2018-05-10T01:24:18.161Z,68.78
2018-05-10T01:27:22.524Z,65.77
2018-05-10T01:30:25.923Z,67.53
2018-05-10T01:33:29.296Z,66.07
2018-05-10T01:36:32.518Z,64.64
2018-05-10T01:39:35.850Z,64.13
2018-05-10T01:42:39.253Z,66.00
2018-05-10T01:45:42.553Z,64.97
2018-05-10T01:48:45.742Z,64.51
2018-05-10T01:51:51.704Z,66.86
2018-05-10T01:54:55.029Z,67.54
2018-05-10T01:57:58.468Z,67.27
2018-05-10T02:01:01.800Z,70.16
2018-05-10T02:04:05.096Z,70.01
2018-05-10T02:07:08.405Z,69.09
2018-05-10T02:10:11.837Z,70.32
2018-05-10T02:13:15.167Z,69.34
2018-05-10T02:16:18.491Z,71.15
2018-05-10T02:19:22.609Z,72.46
2018-05-10T02:22:25.924Z,72.59
2018-05-10T02:25:29.292Z,69.40
2018-05-10T02:28:32.719Z,73.36
2018-05-10T02:31:36.020Z,74.74
2018-05-10T02:34:39.680Z,74.23
2018-05-10T02:37:43.063Z,74.97
2018-05-10T02:40:46.480Z,74.99
2018-05-10T02:43:49.869Z,75.59
2018-05-10T02:46:53.869Z,76.36
2018-05-10T02:49:57.284Z,76.12
2018-05-10T02:53:00.604Z,75.26
2018-05-10T02:56:04.083Z,76.23
2018-05-10T02:59:07.447Z,76.36
2018-05-10T03:02:10.788Z,75.84
2018-05-10T03:05:14.123Z,76.39
2018-05-10T03:08:17.457Z,75.71
2018-05-10T03:11:21.231Z,75.90
2018-05-10T03:14:25.563Z,75.08
2018-05-10T03:17:28.808Z,73.41
2018-05-10T03:20:32.166Z,74.63
2018-05-10T03:23:35.451Z,73.78
2018-05-10T03:26:39.781Z,76.29
2018-05-10T03:29:43.096Z,75.27
2018-05-10T03:32:46.428Z,77.56
2018-05-10T03:35:49.929Z,77.80
2018-05-10T03:38:53.221Z,77.30
2018-05-10T03:41:56.448Z,77.22
2018-05-10T03:44:59.852Z,76.85
2018-05-10T03:48:03.038Z,77.55
2018-05-10T03:51:08.380Z,76.37
2018-05-10T03:54:11.719Z,76.27
2018-05-10T03:57:15.003Z,76.56
2018-05-10T04:00:19.453Z,76.09
2018-05-10T04:03:31.668Z,74.91
2018-05-10T04:06:46.360Z,73.65
2018-05-10T04:11:17.920Z,75.16
2018-05-10T04:14:22.253Z,73.62
2018-05-10T04:17:26.583Z,72.70
2018-05-10T04:20:33.487Z,74.56
2018-05-10T04:23:36.897Z,75.37
2018-05-10T04:26:40.202Z,74.67
2018-05-10T04:29:43.559Z,75.02
2018-05-10T04:32:46.859Z,74.41
2018-05-10T04:35:50.904Z,76.08
2018-05-10T04:38:54.227Z,74.06
2018-05-10T04:41:57.596Z,72.10
2018-05-10T04:45:00.959Z,72.76
2018-05-10T04:48:04.449Z,73.70
2018-05-10T04:51:07.738Z,74.08
2018-05-10T04:54:11.043Z,75.51
2018-05-10T04:57:14.395Z,74.62
2018-05-10T05:00:17.674Z,74.55
2018-05-10T05:03:20.955Z,74.20
2018-05-10T05:06:24.396Z,73.78
2018-05-10T05:09:28.146Z,74.96
2018-05-10T05:12:31.488Z,74.00
2018-05-10T05:15:34.866Z,74.02
2018-05-10T05:18:38.240Z,74.48
2018-05-10T05:21:42.620Z,75.58
2018-05-10T05:24:46.890Z,75.62
2018-05-10T05:27:50.341Z,73.75
2018-05-10T05:30:53.730Z,73.52
2018-05-10T05:33:57.089Z,74.56
2018-05-10T05:37:00.732Z,75.65
2018-05-10T05:40:04.095Z,74.58
2018-05-10T05:43:08.465Z,75.00
2018-05-10T05:46:11.804Z,75.91
2018-05-10T05:49:15.134Z,76.84
2018-05-10T05:52:18.364Z,76.23
2018-05-10T05:55:21.770Z,76.50
2018-05-10T05:58:25.166Z,75.30
2018-05-10T06:01:29.645Z,75.22
2018-05-10T06:04:33.049Z,75.34
2018-05-10T06:07:36.304Z,75.13
2018-05-10T06:10:39.663Z,75.85
2018-05-10T06:13:43.074Z,75.65
2018-05-10T06:16:46.497Z,74.94
2018-05-10T06:19:49.835Z,75.04
2018-05-10T06:22:53.247Z,74.72
2018-05-10T06:25:56.624Z,74.89
2018-05-10T06:29:00.281Z,75.37
2018-05-10T06:32:03.677Z,74.56
2018-05-10T06:35:07.029Z,75.07
2018-05-10T06:38:10.356Z,74.71
2018-05-10T06:41:13.736Z,75.52
2018-05-10T06:44:17.226Z,75.84
2018-05-10T06:47:20.592Z,74.66
2018-05-10T06:50:23.924Z,75.71
2018-05-10T06:53:27.944Z,74.63
2018-05-10T06:56:32.292Z,75.14
2018-05-10T06:59:35.831Z,73.63
2018-05-10T07:02:39.319Z,74.19
2018-05-10T07:05:42.595Z,74.68
2018-05-10T07:08:46.047Z,74.65
2018-05-10T07:11:49.413Z,75.88
2018-05-10T07:14:52.811Z,74.55
2018-05-10T07:17:56.174Z,74.44
2018-05-10T07:20:59.580Z,74.05
2018-05-10T07:24:03.152Z,73.21
2018-05-10T07:27:06.582Z,73.62
2018-05-10T07:30:09.958Z,73.29
2018-05-10T07:33:13.351Z,72.83
2018-05-10T07:36:16.835Z,71.87
2018-05-10T07:39:20.183Z,71.88
2018-05-10T07:42:23.519Z,71.41
2018-05-10T07:45:26.809Z,71.09
2018-05-10T07:48:30.731Z,71.21
2018-05-10T07:51:33.966Z,71.15
2018-05-10T07:54:37.241Z,70.15
2018-05-10T07:57:40.715Z,69.96
2018-05-10T08:00:45.041Z,70.29
2018-05-10T08:03:48.282Z,70.68
2018-05-10T08:06:51.649Z,71.28
2018-05-10T08:09:55.221Z,69.20
2018-05-10T08:12:59.139Z,68.66
2018-05-10T08:16:02.499Z,70.02
2018-05-10T08:19:05.901Z,68.96
2018-05-10T08:22:09.294Z,69.40
2018-05-10T08:25:12.800Z,68.08
2018-05-10T08:28:16.140Z,68.19
2018-05-10T08:31:19.568Z,68.18
2018-05-10T08:34:22.943Z,68.12
2018-05-10T08:37:26.115Z,67.39
2018-05-10T08:40:30.187Z,66.29
2018-05-10T08:43:33.532Z,67.02
2018-05-10T08:46:36.994Z,64.47
2018-05-10T08:49:40.336Z,63.94
2018-05-10T08:52:43.759Z,63.92
2018-05-10T08:55:47.163Z,64.93
2018-05-10T08:58:50.568Z,65.11
2018-05-10T09:01:53.915Z,65.02
2018-05-10T09:04:57.466Z,64.72
2018-05-10T09:08:01.971Z,64.79
2018-05-10T09:11:05.571Z,64.15
2018-05-10T09:14:08.804Z,63.24
2018-05-10T09:17:12.000Z,62.88
2018-05-10T09:20:15.487Z,62.99
2018-05-10T09:23:18.816Z,63.38
2018-05-10T09:26:22.213Z,63.54
2018-05-10T09:29:25.490Z,64.04
2018-05-10T09:32:29.512Z,65.05
2018-05-10T09:35:32.688Z,65.42
2018-05-10T09:38:36.113Z,65.72
2018-05-10T09:41:39.928Z,66.60
2018-05-10T09:44:43.228Z,67.28
2018-05-10T09:47:47.485Z,68.17
2018-05-10T09:50:50.907Z,69.33
2018-05-10T09:53:54.331Z,71.34
2018-05-10T09:56:58.045Z,72.00
2018-05-10T10:00:01.457Z,72.22
2018-05-10T10:03:04.750Z,72.06
2018-05-10T10:06:08.088Z,71.97
2018-05-10T10:09:11.438Z,71.26
2018-05-10T10:12:14.739Z,71.39
2018-05-10T10:15:17.961Z,69.74
2018-05-10T10:18:21.283Z,70.51
2018-05-10T10:21:24.517Z,71.04
2018-05-10T10:24:27.750Z,70.53
2018-05-10T10:27:30.971Z,70.42
2018-05-10T10:30:34.259Z,71.80
2018-05-10T10:33:37.603Z,71.33
2018-05-10T10:36:41.751Z,72.18
2018-05-10T10:39:45.795Z,72.29
2018-05-10T10:42:48.980Z,72.54
2018-05-10T10:45:52.349Z,72.41
2018-05-10T10:48:55.817Z,74.52
2018-05-10T10:51:59.112Z,72.46
2018-05-10T10:55:02.347Z,72.06
2018-05-10T10:58:05.727Z,73.18
2018-05-10T11:01:09.119Z,75.04
2018-05-10T11:04:12.366Z,74.20
2018-05-10T11:07:16.080Z,74.98
2018-05-10T11:10:19.407Z,75.91
2018-05-10T11:13:22.844Z,75.46
2018-05-10T11:16:26.224Z,75.27
2018-05-10T11:19:29.599Z,77.03
2018-05-10T11:22:33.083Z,76.31
2018-05-10T11:25:36.399Z,77.52
2018-05-10T11:28:39.824Z,77.01
2018-05-10T11:31:43.582Z,77.35
2018-05-10T11:34:46.905Z,77.68
2018-05-10T11:37:50.580Z,77.29
2018-05-10T11:40:53.901Z,76.55
2018-05-10T11:43:57.386Z,74.95
2018-05-10T11:47:00.729Z,77.15
2018-05-10T11:50:04.173Z,75.43
2018-05-10T11:53:07.459Z,76.84
2018-05-10T11:56:10.817Z,75.67
2018-05-10T11:59:14.012Z,75.46
2018-05-10T12:02:17.318Z,75.91
2018-05-10T12:05:20.721Z,76.24
2018-05-10T12:08:24.405Z,75.47
2018-05-10T12:11:28.822Z,77.83
2018-05-10T12:14:32.942Z,77.94
2018-05-10T12:17:36.345Z,78.47
2018-05-10T12:20:39.744Z,78.82
2018-05-10T12:23:43.223Z,78.13
2018-05-10T12:26:46.622Z,78.37
2018-05-10T12:29:49.822Z,78.27
2018-05-10T12:32:53.168Z,78.47
2018-05-10T12:35:56.510Z,79.31
2018-05-10T12:39:05.097Z,82.23
2018-05-10T12:42:08.588Z,81.55
2018-05-10T12:45:11.910Z,79.05
2018-05-10T12:48:15.276Z,79.32
2018-05-10T12:51:19.548Z,80.99
2018-05-10T12:54:24.900Z,81.12
2018-05-10T12:57:28.281Z,81.34
2018-05-10T13:00:33.088Z,81.16
2018-05-10T13:03:36.533Z,80.82
2018-05-10T13:06:39.875Z,80.55
2018-05-10T13:09:44.204Z,82.08
2018-05-10T13:12:47.591Z,82.78
2018-05-10T13:15:50.884Z,80.75
2018-05-10T13:18:54.214Z,80.49
2018-05-10T13:21:57.599Z,80.40
2018-05-10T13:25:01.003Z,80.29
2018-05-10T13:28:05.478Z,80.77
2018-05-10T13:31:08.868Z,80.48
2018-05-10T13:34:12.331Z,82.19
2018-05-10T13:37:15.612Z,81.12
2018-05-10T13:40:19.106Z,81.25
2018-05-10T13:43:22.475Z,82.50
2018-05-10T13:46:25.812Z,79.95
2018-05-10T13:49:29.028Z,79.13
2018-05-10T13:52:34.510Z,78.37
2018-05-10T13:55:37.863Z,78.15
2018-05-10T13:58:41.267Z,78.51
2018-05-10T14:01:44.580Z,80.05
2018-05-10T14:04:47.983Z,80.99
2018-05-10T14:07:52.349Z,79.09
2018-05-10T14:10:55.643Z,79.99
2018-05-10T14:13:58.966Z,82.08
2018-05-10T14:17:03.478Z,82.23
2018-05-10T14:20:06.839Z,78.31
2018-05-10T14:23:10.341Z,75.96
2018-05-10T14:26:13.591Z,76.19
2018-05-10T14:29:17.022Z,74.08
2018-05-10T14:32:20.426Z,69.58
2018-05-10T14:35:23.792Z,72.42
2018-05-10T14:38:27.229Z,70.46
2018-05-10T14:41:30.607Z,67.31
2018-05-10T14:44:34.907Z,68.00
2018-05-10T14:47:38.342Z,65.18
2018-05-10T14:50:41.630Z,65.30
2018-05-10T14:53:45.077Z,64.72
2018-05-10T14:56:48.441Z,64.20
2018-05-10T14:59:51.726Z,65.19
2018-05-10T15:02:55.107Z,67.83
2018-05-10T15:05:58.392Z,67.69
2018-05-10T15:09:03.130Z,69.12
2018-05-10T15:12:06.580Z,68.19
2018-05-10T15:15:09.938Z,68.01
2018-05-10T15:18:13.178Z,67.83
2018-05-10T15:21:16.557Z,67.13
2018-05-10T15:24:19.865Z,67.86
2018-05-10T15:27:23.432Z,67.86
2018-05-10T15:30:26.832Z,66.57
2018-05-10T15:33:30.068Z,67.11
2018-05-10T15:36:33.960Z,66.68
2018-05-10T15:39:37.309Z,67.47
2018-05-10T15:42:40.501Z,67.81
2018-05-10T15:45:43.805Z,70.11
2018-05-10T15:48:47.284Z,70.87
2018-05-10T15:51:50.870Z,70.15
2018-05-10T15:54:54.175Z,72.70
2018-05-10T15:57:57.856Z,71.58
2018-05-10T16:01:01.244Z,72.51
2018-05-10T16:04:05.249Z,73.05
2018-05-10T16:07:08.671Z,72.85
2018-05-10T16:10:11.969Z,73.28
2018-05-10T16:13:15.424Z,74.47
2018-05-10T16:16:18.847Z,74.09
2018-05-10T16:19:22.179Z,75.88
2018-05-10T16:22:25.614Z,75.81
2018-05-10T16:25:28.980Z,76.50
2018-05-10T16:28:33.990Z,75.00
2018-05-10T16:31:37.722Z,76.73
2018-05-10T16:34:40.976Z,76.23
2018-05-10T16:37:44.295Z,76.48
2018-05-10T16:40:47.766Z,75.83
2018-05-10T16:43:51.107Z,75.87
2018-05-10T16:46:54.444Z,76.42
2018-05-10T16:49:57.834Z,76.52
2018-05-10T16:53:01.270Z,76.89
2018-05-10T16:56:05.855Z,77.01
2018-05-10T16:59:09.231Z,77.61
2018-05-10T17:02:12.644Z,77.83
2018-05-10T17:05:16.040Z,78.37
2018-05-10T17:08:19.393Z,78.76
2018-05-10T17:11:22.699Z,78.14
2018-05-10T17:14:26.059Z,78.38
2018-05-10T17:17:29.415Z,77.86
2018-05-10T17:20:32.751Z,78.16
2018-05-10T17:23:37.256Z,78.87
2018-05-10T17:26:40.561Z,78.55
2018-05-10T17:29:44.140Z,78.21
2018-05-10T17:32:47.452Z,78.27
2018-05-10T17:35:50.703Z,79.41
2018-05-10T17:38:54.188Z,79.49
2018-05-10T17:41:57.579Z,78.18
2018-05-10T17:45:01.145Z,78.51
2018-05-10T17:48:04.901Z,77.99
2018-05-10T17:51:08.179Z,78.26
2018-05-10T17:54:11.622Z,79.21
2018-05-10T17:57:14.968Z,79.06
2018-05-10T18:00:18.250Z,78.92
2018-05-10T18:03:21.480Z,78.87
2018-05-10T18:06:24.760Z,79.46
2018-05-10T18:09:28.138Z,78.72
2018-05-10T18:12:31.532Z,79.35
2018-05-10T18:15:34.860Z,79.58
2018-05-10T18:18:38.116Z,78.97
2018-05-10T18:21:43.513Z,79.12
2018-05-10T18:24:46.838Z,78.69
2018-05-10T18:27:50.259Z,78.89
2018-05-10T18:30:53.729Z,78.79
2018-05-10T18:33:57.112Z,78.17
2018-05-10T18:37:00.618Z,78.20
2018-05-10T18:40:04.036Z,80.27
2018-05-10T18:43:07.437Z,79.05
2018-05-10T18:46:11.275Z,79.68
2018-05-10T18:49:14.624Z,79.62
2018-05-10T18:52:19.091Z,79.58
2018-05-10T18:55:22.694Z,79.34
2018-05-10T18:58:25.977Z,78.77
2018-05-10T19:01:29.319Z,77.98
2018-05-10T19:04:32.539Z,79.16
2018-05-10T19:07:36.857Z,79.37
2018-05-10T19:10:40.309Z,79.32
2018-05-10T19:13:43.651Z,79.77
2018-05-10T19:16:46.874Z,79.52
2018-05-10T19:19:50.277Z,79.58
2018-05-10T19:22:53.654Z,79.27
2018-05-10T19:25:57.701Z,79.19
2018-05-10T19:29:01.219Z,79.01
2018-05-10T19:32:05.111Z,79.38
2018-05-10T19:35:08.491Z,79.10
2018-05-10T19:38:11.867Z,79.14
2018-05-10T19:41:15.238Z,79.19
2018-05-10T19:44:18.653Z,79.51
2018-05-10T19:47:22.057Z,79.07
2018-05-10T19:50:25.735Z,78.86
2018-05-10T19:53:29.080Z,79.08
2018-05-10T19:56:32.554Z,79.23
2018-05-10T19:59:35.884Z,79.47
2018-05-10T20:02:39.354Z,78.67
2018-05-10T20:05:45.845Z,79.21
2018-05-10T20:08:49.329Z,79.07
2018-05-10T20:11:52.653Z,79.85
2018-05-10T20:14:57.728Z,79.41
2018-05-10T20:18:01.069Z,78.99
2018-05-10T20:21:04.374Z,79.89
2018-05-10T20:24:08.790Z,79.61
2018-05-10T20:27:12.156Z,78.97
2018-05-10T20:30:15.453Z,78.84
2018-05-10T20:33:18.765Z,79.40
2018-05-10T20:36:24.209Z,79.33
2018-05-10T20:39:27.557Z,79.60
2018-05-10T20:42:30.896Z,79.46
2018-05-10T20:45:35.723Z,79.89
2018-05-10T20:48:39.213Z,80.29
2018-05-10T20:51:42.619Z,79.89
2018-05-10T20:54:46.224Z,80.02
2018-05-10T20:57:50.654Z,80.06
2018-05-10T21:00:55.070Z,79.94
2018-05-10T21:03:58.292Z,80.17
2018-05-10T21:07:01.790Z,80.01
2018-05-10T21:10:05.362Z,79.53
2018-05-10T21:13:12.177Z,79.88
2018-05-10T21:16:15.527Z,80.07
2018-05-10T21:19:19.041Z,79.80
2018-05-10T21:22:22.308Z,79.34
2018-05-10T21:25:25.753Z,79.08
2018-05-10T21:28:29.118Z,79.48
2018-05-10T21:31:33.610Z,79.44
2018-05-10T21:34:37.053Z,79.22
2018-05-10T21:37:40.352Z,78.85
2018-05-10T21:40:45.757Z,78.94
2018-05-10T21:43:49.122Z,79.20
2018-05-10T21:46:52.529Z,79.07
2018-05-10T21:50:03.943Z,79.25
2018-05-10T21:53:07.264Z,79.53
2018-05-10T21:56:10.545Z,79.33
2018-05-10T21:59:13.901Z,79.18
2018-05-10T22:02:17.661Z,78.50
2018-05-10T22:05:21.020Z,78.52
2018-05-10T22:08:24.424Z,78.68
2018-05-10T22:11:27.813Z,78.14
2018-05-10T22:14:31.218Z,77.41
2018-05-10T22:17:34.812Z,77.24
2018-05-10T22:20:38.562Z,77.35
2018-05-10T22:23:41.952Z,77.00
2018-05-10T22:26:45.340Z,76.67
2018-05-10T22:29:48.496Z,76.57
2018-05-10T22:32:51.964Z,76.69
2018-05-10T22:35:55.438Z,76.92
2018-05-10T22:38:58.816Z,76.53
2018-05-10T22:42:03.822Z,76.83
2018-05-10T22:45:07.481Z,76.74
2018-05-10T22:48:10.965Z,77.30
2018-05-10T22:51:14.388Z,76.66
2018-05-10T22:54:17.818Z,77.32
2018-05-10T22:57:21.222Z,77.27
2018-05-10T23:00:24.585Z,76.83
2018-05-10T23:03:28.071Z,76.87
2018-05-10T23:06:31.522Z,76.44
2018-05-10T23:09:35.958Z,76.61
2018-05-10T23:12:39.316Z,76.66
2018-05-10T23:15:42.735Z,77.22
2018-05-10T23:18:46.106Z,77.51
2018-05-10T23:21:49.505Z,77.30
2018-05-10T23:24:52.871Z,77.48
2018-05-10T23:27:56.329Z,78.02
2018-05-10T23:30:59.717Z,77.11
2018-05-10T23:34:03.603Z,76.96
2018-05-10T23:37:08.997Z,76.76
2018-05-10T23:40:12.314Z,76.64
2018-05-10T23:43:15.644Z,77.23
2018-05-10T23:46:18.955Z,77.32
2018-05-10T23:49:22.484Z,77.46
2018-05-10T23:52:25.978Z,77.50
2018-05-10T23:55:29.232Z,77.81
2018-05-10T23:58:33.599Z,78.08
